| time (UTC) | temp C | wind direction | speed KPH | gust KPH | rain 1hr cm | rain 24hr cm | rain mn cm | humidity % | barometer mb |
| 20260506061516 | 13 | 178 | 0.0 | 0.0 | 0.00 | 0.00 | 0.00 | 91 | 1016.7 |
| 20260506044526 | 15 | 178 | 0.0 | 3.2 | 0.00 | 0.00 | 0.00 | 87 | 1017.8 |
| 20260506043019 | 16 | 166 | 0.0 | 3.2 | 0.00 | 0.00 | 0.00 | 86 | 1017.9 |
| 20260506041514 | 16 | 246 | 0.0 | 4.8 | 0.00 | 0.00 | 0.00 | 1017.9 | |
| 20260506040033 | 16 | 124 | 0.0 | 3.2 | 0.00 | 0.00 | 0.00 | 84 | 1018.0 |
| 20260506034524 | 16 | 164 | 0.0 | 3.2 | 0.00 | 0.00 | 0.00 | 83 | 1018.1 |
| 20260506033026 | 17 | 198 | 0.0 | 3.2 | 0.00 | 0.00 | 0.00 | 82 | 1018.1 |
| 20260506031524 | 17 | 81 | 0.0 | 3.2 | 0.00 | 0.00 | 0.00 | 80 | 1018.1 |
| 20260506030021 | 17 | 96 | 0.0 | 3.2 | 0.00 | 0.00 | 0.00 | 79 | 1018.3 |
| 20260506024528 | 17 | 215 | 0.0 | 4.8 | 0.00 | 0.00 | 0.00 | 78 | 1018.3 |
| 20260506023026 | 18 | 136 | 0.0 | 3.2 | 0.00 | 0.00 | 0.00 | 76 | 1018.3 |
| 20260506021541 | 18 | 121 | 1.6 | 3.2 | 0.00 | 0.00 | 0.00 | 75 | 1018.3 |
| 20260506020024 | 18 | 186 | 1.6 | 4.8 | 0.00 | 0.00 | 0.00 | 74 | 1018.2 |
| 20260506014525 | 18 | 132 | 0.0 | 6.4 | 0.00 | 0.00 | 0.00 | 74 | 1018.0 |
| 20260506013024 | 18 | 189 | 0.0 | 4.8 | 0.00 | 0.00 | 0.00 | 72 | 1018.1 |
| 20260506011527 | 18 | 163 | 0.0 | 6.4 | 0.00 | 0.00 | 0.00 | 71 | 1017.9 |
| 20260506010036 | 18 | 237 | 0.0 | 8.0 | 0.00 | 0.00 | 0.00 | 70 | 1017.8 |
| 20260506004526 | 19 | 109 | 1.6 | 6.4 | 0.00 | 0.00 | 0.00 | 68 | 1017.7 |
| 20260506003023 | 20 | 193 | 3.2 | 11.3 | 0.00 | 0.00 | 0.00 | 67 | 1017.7 |
| 20260506001507 | 20 | 98 | 1.6 | 14.5 | 0.00 | 0.00 | 0.00 | 65 | 1017.8 |
| 20260506000011 | 20 | 198 | 3.2 | 16.1 | 0.00 | 0.00 | 0.00 | 64 | 1017.7 |
| 20260505234518 | 20 | 202 | 4.8 | 12.9 | 0.00 | 0.00 | 0.00 | 63 | 1017.6 |
| 20260505233022 | 21 | 298 | 1.6 | 14.5 | 0.00 | 0.00 | 0.00 | 61 | 1017.6 |
| 20260505231504 | 21 | 198 | 3.2 | 14.5 | 0.00 | 0.00 | 0.00 | 59 | 1017.6 |
| 20260505230009 | 21 | 234 | 6.4 | 22.5 | 0.00 | 0.00 | 0.00 | 57 | 1017.6 |
| 20260505224524 | 22 | 104 | 6.4 | 25.7 | 0.00 | 0.00 | 0.00 | 56 | 1017.6 |
| 20260505223019 | 22 | 241 | 8.0 | 22.5 | 0.00 | 0.00 | 0.00 | 57 | 1017.7 |
| 20260505221524 | 22 | 273 | 8.0 | 16.1 | 0.00 | 0.00 | 0.00 | 56 | 1017.6 |
| 20260505220008 | 22 | 202 | 9.7 | 22.5 | 0.00 | 0.00 | 0.00 | 56 | 1017.6 |
| 20260505214515 | 22 | 244 | 8.0 | 20.9 | 0.00 | 0.00 | 0.00 | 56 | 1017.6 |
| 20260505213019 | 23 | 161 | 4.8 | 17.7 | 0.00 | 0.00 | 0.00 | 56 | 1017.4 |
| 20260505211535 | 23 | 182 | 8.0 | 19.3 | 0.00 | 0.00 | 0.00 | 56 | 1017.4 |
| 20260505210024 | 23 | 251 | 6.4 | 22.5 | 0.00 | 0.00 | 0.00 | 57 | 1017.5 |
| 20260505204511 | 23 | 309 | 6.4 | 19.3 | 0.00 | 0.00 | 0.00 | 57 | 1017.4 |
| 20260505203015 | 23 | 234 | 8.0 | 24.1 | 0.00 | 0.00 | 0.00 | 55 | 1017.4 |
| 20260505201523 | 24 | 161 | 8.0 | 22.5 | 0.00 | 0.00 | 0.00 | 53 | 1017.6 |
| 20260505200025 | 24 | 210 | 6.4 | 22.5 | 0.00 | 0.00 | 0.00 | 53 | 1017.8 |
| 20260505194526 | 24 | 242 | 11.3 | 25.7 | 0.00 | 0.00 | 0.00 | 53 | 1018.2 |
| 20260505193014 | 25 | 72 | 4.8 | 19.3 | 0.00 | 0.00 | 0.00 | 50 | 1018.2 |
| 20260505191520 | 25 | 217 | 11.3 | 22.5 | 0.00 | 0.00 | 0.00 | 50 | 1018.4 |
| 20260505190023 | 25 | 244 | 6.4 | 27.4 | 0.00 | 0.00 | 0.00 | 52 | 1018.5 |
| 20260505184534 | 25 | 148 | 4.8 | 22.5 | 0.00 | 0.00 | 0.00 | 50 | 1018.4 |
| 20260505183037 | 25 | 180 | 6.4 | 19.3 | 0.00 | 0.00 | 0.00 | 52 | 1018.5 |
| 20260505181521 | 25 | 126 | 8.0 | 20.9 | 0.00 | 0.00 | 0.00 | 48 | 1018.6 |
| 20260505180023 | 25 | 192 | 4.8 | 17.7 | 0.00 | 0.00 | 0.00 | 48 | 1018.3 |
| 20260505174528 | 25 | 271 | 6.4 | 22.5 | 0.00 | 0.00 | 0.00 | 49 | 1018.4 |
| 20260505173027 | 25 | 263 | 4.8 | 19.3 | 0.00 | 0.00 | 0.00 | 50 | 1018.3 |
| 20260505171517 | 25 | 250 | 3.2 | 16.1 | 0.00 | 0.00 | 0.00 | 50 | 1018.3 |
| 20260505170033 | 25 | 98 | 4.8 | 12.9 | 0.00 | 0.00 | 0.00 | 50 | 1018.5 |
| 20260505164525 | 25 | 232 | 3.2 | 17.7 | 0.00 | 0.00 | 0.00 | 49 | 1018.7 |
| 20260505163028 | 25 | 185 | 8.0 | 24.1 | 0.00 | 0.00 | 0.00 | 51 | 1018.8 |
| 20260505161527 | 24 | 185 | 3.2 | 17.7 | 0.00 | 0.00 | 0.00 | 51 | 1018.9 |
| 20260505153026 | 23 | 243 | 9.7 | 19.3 | 0.00 | 0.00 | 0.00 | 53 | 1018.9 |
| 20260505151517 | 23 | 227 | 1.6 | 17.7 | 0.00 | 0.00 | 0.00 | 53 | 1019.2 |
| 20260505124522 | 19 | 206 | 1.6 | 9.7 | 0.00 | 0.00 | 0.00 | 68 | 1019.5 |
| 20260505123025 | 18 | 106 | 3.2 | 8.0 | 0.00 | 0.00 | 0.00 | 73 | 1019.4 |
| 20260505121526 | 17 | 201 | 1.6 | 8.0 | 0.00 | 0.00 | 0.00 | 76 | 1019.3 |
| 20260505120016 | 16 | 352 | 0.0 | 4.8 | 0.00 | 0.00 | 0.00 | 85 | 1019.3 |
| 20260505114519 | 14 | 283 | 0.0 | 3.2 | 0.00 | 0.00 | 0.00 | 93 | 1019.1 |
| 20260505113031 | 13 | 154 | 0.0 | 3.2 | 0.00 | 0.00 | 0.00 | 93 | 1018.9 |
| 20260505111538 | 12 | 154 | 0.0 | 0.0 | 0.00 | 0.00 | 0.00 | 93 | 1018.9 |
| 20260505101533 | 11 | 195 | 0.0 | 3.2 | 0.00 | 0.00 | 0.00 | 92 | 1018.2 |
| 20260505100028 | 11 | 195 | 0.0 | 0.0 | 0.00 | 0.00 | 0.00 | 92 | 1018.1 |
| 20260505094529 | 11 | 195 | 0.0 | 0.0 | 0.00 | 0.00 | 0.00 | 91 | 1017.8 |
| 20260505093020 | 12 | 195 | 0.0 | 0.0 | 0.00 | 0.00 | 0.00 | 91 | 1017.8 |
| 20260505091525 | 12 | 195 | 0.0 | 0.0 | 0.00 | 0.00 | 0.00 | 91 | 1017.7 |
| 20260505090030 | 12 | 195 | 0.0 | 0.0 | 0.00 | 0.00 | 0.00 | 91 | 1017.7 |
| 20260505084530 | 12 | 195 | 0.0 | 0.0 | 0.00 | 0.00 | 0.00 | 90 | 1017.5 |
| 20260505083029 | 12 | 195 | 0.0 | 0.0 | 0.00 | 0.00 | 0.00 | 89 | 1017.5 |
| 20260505081521 | 12 | 195 | 0.0 | 0.0 | 0.00 | 0.00 | 0.00 | 89 | 1017.5 |
| 20260505080029 | 13 | 195 | 0.0 | 0.0 | 0.00 | 0.00 | 0.00 | 88 | 1017.4 |
| 20260505074528 | 13 | 195 | 0.0 | 0.0 | 0.00 | 0.00 | 0.00 | 87 | 1017.3 |
| 20260505073028 | 13 | 195 | 0.0 | 3.2 | 0.00 | 0.00 | 0.00 | 86 | 1017.2 |
| 20260505071520 | 13 | 215 | 0.0 | 3.2 | 0.00 | 0.00 | 0.00 | 85 | 1017.1 |